sensor_id;sensor_type;location;lat;lon;timestamp;P1;durP1;ratioP1;P2;durP2;ratioP2
7398;SDS011;3740;50.700;7.184;2023-07-24T00:01:08;4.28;;;3.13;;
7398;SDS011;3740;50.700;7.184;2023-07-24T00:03:33;3.67;;;3.38;;
7398;SDS011;3740;50.700;7.184;2023-07-24T00:05:59;3.15;;;2.95;;
7398;SDS011;3740;50.700;7.184;2023-07-24T00:08:24;3.50;;;3.20;;
7398;SDS011;3740;50.700;7.184;2023-07-24T00:10:50;3.35;;;3.05;;
7398;SDS011;3740;50.700;7.184;2023-07-24T00:13:16;3.47;;;3.17;;
7398;SDS011;3740;50.700;7.184;2023-07-24T00:15:41;3.50;;;3.20;;
7398;SDS011;3740;50.700;7.184;2023-07-24T00:18:07;3.25;;;3.05;;
7398;SDS011;3740;50.700;7.184;2023-07-24T00:20:32;3.45;;;3.15;;
7398;SDS011;3740;50.700;7.184;2023-07-24T00:22:58;4.55;;;3.20;;
7398;SDS011;3740;50.700;7.184;2023-07-24T00:25:24;4.20;;;3.20;;
7398;SDS011;3740;50.700;7.184;2023-07-24T00:27:49;4.80;;;3.40;;
7398;SDS011;3740;50.700;7.184;2023-07-24T00:30:15;3.70;;;3.40;;
7398;SDS011;3740;50.700;7.184;2023-07-24T00:32:40;3.65;;;3.35;;
7398;SDS011;3740;50.700;7.184;2023-07-24T00:35:06;3.85;;;3.42;;
7398;SDS011;3740;50.700;7.184;2023-07-24T00:37:32;3.60;;;3.30;;
7398;SDS011;3740;50.700;7.184;2023-07-24T00:39:58;3.85;;;3.47;;
7398;SDS011;3740;50.700;7.184;2023-07-24T00:42:23;3.80;;;3.45;;
7398;SDS011;3740;50.700;7.184;2023-07-24T00:44:49;3.63;;;3.42;;
7398;SDS011;3740;50.700;7.184;2023-07-24T00:47:14;3.70;;;3.40;;
7398;SDS011;3740;50.700;7.184;2023-07-24T00:49:40;3.20;;;2.90;;
7398;SDS011;3740;50.700;7.184;2023-07-24T00:52:06;4.07;;;3.67;;
7398;SDS011;3740;50.700;7.184;2023-07-24T00:54:32;4.35;;;3.50;;
7398;SDS011;3740;50.700;7.184;2023-07-24T00:56:59;3.83;;;3.53;;
7398;SDS011;3740;50.700;7.184;2023-07-24T00:59:25;3.72;;;3.20;;
7398;SDS011;3740;50.700;7.184;2023-07-24T01:01:51;3.50;;;3.20;;
7398;SDS011;3740;50.700;7.184;2023-07-24T01:04:16;3.92;;;3.58;;
7398;SDS011;3740;50.700;7.184;2023-07-24T01:06:43;3.92;;;3.47;;
7398;SDS011;3740;50.700;7.184;2023-07-24T01:09:08;3.53;;;3.22;;
7398;SDS011;3740;50.700;7.184;2023-07-24T01:11:43;3.65;;;3.33;;
7398;SDS011;3740;50.700;7.184;2023-07-24T01:14:23;3.65;;;3.35;;
7398;SDS011;3740;50.700;7.184;2023-07-24T01:16:55;4.63;;;3.40;;
7398;SDS011;3740;50.700;7.184;2023-07-24T01:19:37;4.10;;;3.80;;
7398;SDS011;3740;50.700;7.184;2023-07-24T01:27:34;3.63;;;3.33;;
7398;SDS011;3740;50.700;7.184;2023-07-24T01:30:00;3.60;;;3.30;;
7398;SDS011;3740;50.700;7.184;2023-07-24T01:32:25;4.07;;;3.67;;
7398;SDS011;3740;50.700;7.184;2023-07-24T01:34:51;3.83;;;3.47;;
7398;SDS011;3740;50.700;7.184;2023-07-24T01:37:17;3.63;;;3.30;;
7398;SDS011;3740;50.700;7.184;2023-07-24T01:39:45;3.85;;;3.55;;
7398;SDS011;3740;50.700;7.184;2023-07-24T01:42:11;3.60;;;3.40;;
7398;SDS011;3740;50.700;7.184;2023-07-24T01:44:38;3.95;;;3.60;;
7398;SDS011;3740;50.700;7.184;2023-07-24T01:47:03;3.78;;;3.47;;
7398;SDS011;3740;50.700;7.184;2023-07-24T01:49:29;4.13;;;3.80;;
7398;SDS011;3740;50.700;7.184;2023-07-24T01:51:54;3.40;;;3.20;;
7398;SDS011;3740;50.700;7.184;2023-07-24T01:54:21;3.78;;;3.40;;
7398;SDS011;3740;50.700;7.184;2023-07-24T01:56:47;3.78;;;3.47;;
7398;SDS011;3740;50.700;7.184;2023-07-24T01:59:12;3.90;;;3.60;;
7398;SDS011;3740;50.700;7.184;2023-07-24T02:01:38;3.35;;;3.08;;
7398;SDS011;3740;50.700;7.184;2023-07-24T02:04:03;3.72;;;3.42;;
7398;SDS011;3740;50.700;7.184;2023-07-24T02:06:29;3.88;;;3.58;;
7398;SDS011;3740;50.700;7.184;2023-07-24T02:08:54;4.00;;;3.65;;
7398;SDS011;3740;50.700;7.184;2023-07-24T02:11:20;4.03;;;3.72;;
7398;SDS011;3740;50.700;7.184;2023-07-24T02:13:46;3.83;;;3.53;;
7398;SDS011;3740;50.700;7.184;2023-07-24T02:16:12;4.07;;;3.67;;
7398;SDS011;3740;50.700;7.184;2023-07-24T02:18:40;3.80;;;3.50;;
7398;SDS011;3740;50.700;7.184;2023-07-24T02:21:06;3.63;;;3.33;;
7398;SDS011;3740;50.700;7.184;2023-07-24T02:23:32;4.13;;;3.83;;
7398;SDS011;3740;50.700;7.184;2023-07-24T02:25:58;3.97;;;3.58;;
7398;SDS011;3740;50.700;7.184;2023-07-24T02:28:23;4.10;;;3.70;;
7398;SDS011;3740;50.700;7.184;2023-07-24T02:30:49;4.38;;;3.70;;
7398;SDS011;3740;50.700;7.184;2023-07-24T02:33:16;4.47;;;4.07;;
7398;SDS011;3740;50.700;7.184;2023-07-24T02:35:43;4.20;;;3.90;;
7398;SDS011;3740;50.700;7.184;2023-07-24T02:38:08;4.38;;;4.05;;
7398;SDS011;3740;50.700;7.184;2023-07-24T02:40:35;4.63;;;4.18;;
7398;SDS011;3740;50.700;7.184;2023-07-24T02:43:00;4.22;;;3.83;;
7398;SDS011;3740;50.700;7.184;2023-07-24T02:45:26;4.72;;;4.30;;
7398;SDS011;3740;50.700;7.184;2023-07-24T02:47:51;4.65;;;4.25;;
7398;SDS011;3740;50.700;7.184;2023-07-24T02:50:17;4.07;;;3.78;;
7398;SDS011;3740;50.700;7.184;2023-07-24T02:52:43;4.80;;;4.40;;
7398;SDS011;3740;50.700;7.184;2023-07-24T02:55:08;4.30;;;3.90;;
7398;SDS011;3740;50.700;7.184;2023-07-24T02:57:34;4.65;;;4.25;;
7398;SDS011;3740;50.700;7.184;2023-07-24T02:59:59;4.60;;;4.20;;
7398;SDS011;3740;50.700;7.184;2023-07-24T03:02:25;4.40;;;4.00;;
7398;SDS011;3740;50.700;7.184;2023-07-24T03:04:50;4.68;;;4.28;;
7398;SDS011;3740;50.700;7.184;2023-07-24T03:07:16;4.60;;;4.20;;
7398;SDS011;3740;50.700;7.184;2023-07-24T03:09:41;4.88;;;4.47;;
7398;SDS011;3740;50.700;7.184;2023-07-24T03:12:07;4.57;;;4.13;;
7398;SDS011;3740;50.700;7.184;2023-07-24T03:14:33;4.93;;;4.43;;
7398;SDS011;3740;50.700;7.184;2023-07-24T03:16:58;4.72;;;4.30;;
7398;SDS011;3740;50.700;7.184;2023-07-24T03:19:24;5.47;;;4.35;;
7398;SDS011;3740;50.700;7.184;2023-07-24T03:21:49;4.57;;;4.18;;
7398;SDS011;3740;50.700;7.184;2023-07-24T03:24:15;5.00;;;4.30;;
7398;SDS011;3740;50.700;7.184;2023-07-24T03:26:41;4.50;;;4.10;;
7398;SDS011;3740;50.700;7.184;2023-07-24T03:29:07;4.80;;;4.40;;
7398;SDS011;3740;50.700;7.184;2023-07-24T03:31:32;4.90;;;4.18;;
7398;SDS011;3740;50.700;7.184;2023-07-24T03:33:58;4.55;;;4.15;;
7398;SDS011;3740;50.700;7.184;2023-07-24T03:36:23;4.93;;;4.45;;
7398;SDS011;3740;50.700;7.184;2023-07-24T03:38:49;4.55;;;4.05;;
7398;SDS011;3740;50.700;7.184;2023-07-24T03:41:14;4.53;;;4.13;;
7398;SDS011;3740;50.700;7.184;2023-07-24T03:43:40;5.00;;;4.28;;
7398;SDS011;3740;50.700;7.184;2023-07-24T03:46:05;4.30;;;4.00;;
7398;SDS011;3740;50.700;7.184;2023-07-24T03:48:31;5.10;;;4.60;;
7398;SDS011;3740;50.700;7.184;2023-07-24T03:50:57;4.72;;;4.22;;
7398;SDS011;3740;50.700;7.184;2023-07-24T03:53:24;4.82;;;4.40;;
7398;SDS011;3740;50.700;7.184;2023-07-24T03:55:50;5.45;;;4.53;;
7398;SDS011;3740;50.700;7.184;2023-07-24T03:58:16;4.53;;;4.13;;
7398;SDS011;3740;50.700;7.184;2023-07-24T04:00:41;4.40;;;4.00;;
7398;SDS011;3740;50.700;7.184;2023-07-24T04:03:07;4.15;;;3.85;;
7398;SDS011;3740;50.700;7.184;2023-07-24T04:05:34;4.25;;;3.95;;
7398;SDS011;3740;50.700;7.184;2023-07-24T04:08:00;4.82;;;4.43;;
7398;SDS011;3740;50.700;7.184;2023-07-24T04:10:26;5.20;;;4.65;;
7398;SDS011;3740;50.700;7.184;2023-07-24T04:12:52;4.95;;;4.55;;
7398;SDS011;3740;50.700;7.184;2023-07-24T04:15:17;4.82;;;4.45;;
7398;SDS011;3740;50.700;7.184;2023-07-24T04:17:43;5.47;;;4.97;;
7398;SDS011;3740;50.700;7.184;2023-07-24T04:20:09;4.63;;;4.15;;
7398;SDS011;3740;50.700;7.184;2023-07-24T04:22:35;5.35;;;4.40;;
7398;SDS011;3740;50.700;7.184;2023-07-24T04:25:00;5.15;;;4.75;;
7398;SDS011;3740;50.700;7.184;2023-07-24T04:27:26;4.80;;;4.40;;
7398;SDS011;3740;50.700;7.184;2023-07-24T04:29:52;4.72;;;4.32;;
7398;SDS011;3740;50.700;7.184;2023-07-24T04:32:17;5.15;;;4.75;;
7398;SDS011;3740;50.700;7.184;2023-07-24T04:34:43;4.72;;;4.30;;
7398;SDS011;3740;50.700;7.184;2023-07-24T04:37:08;5.38;;;4.78;;
7398;SDS011;3740;50.700;7.184;2023-07-24T04:39:34;4.70;;;4.28;;
7398;SDS011;3740;50.700;7.184;2023-07-24T04:41:59;4.32;;;4.00;;
7398;SDS011;3740;50.700;7.184;2023-07-24T04:44:25;4.55;;;4.15;;
7398;SDS011;3740;50.700;7.184;2023-07-24T04:46:50;5.05;;;4.55;;
7398;SDS011;3740;50.700;7.184;2023-07-24T04:49:16;5.10;;;4.60;;
7398;SDS011;3740;50.700;7.184;2023-07-24T04:51:41;5.30;;;4.80;;
7398;SDS011;3740;50.700;7.184;2023-07-24T04:54:07;4.30;;;3.95;;
7398;SDS011;3740;50.700;7.184;2023-07-24T04:56:33;4.80;;;4.40;;
7398;SDS011;3740;50.700;7.184;2023-07-24T04:58:58;5.07;;;4.10;;
7398;SDS011;3740;50.700;7.184;2023-07-24T05:01:24;5.25;;;4.55;;
7398;SDS011;3740;50.700;7.184;2023-07-24T05:03:49;5.03;;;4.53;;
7398;SDS011;3740;50.700;7.184;2023-07-24T05:06:15;4.85;;;4.30;;
7398;SDS011;3740;50.700;7.184;2023-07-24T05:08:40;6.10;;;4.68;;
7398;SDS011;3740;50.700;7.184;2023-07-24T05:11:06;4.70;;;4.30;;
7398;SDS011;3740;50.700;7.184;2023-07-24T05:13:31;5.18;;;4.43;;
7398;SDS011;3740;50.700;7.184;2023-07-24T05:15:57;4.55;;;4.15;;
7398;SDS011;3740;50.700;7.184;2023-07-24T05:18:22;4.30;;;3.90;;
7398;SDS011;3740;50.700;7.184;2023-07-24T05:20:48;4.40;;;4.00;;
7398;SDS011;3740;50.700;7.184;2023-07-24T05:23:16;5.25;;;4.50;;
7398;SDS011;3740;50.700;7.184;2023-07-24T05:25:42;5.10;;;4.60;;
7398;SDS011;3740;50.700;7.184;2023-07-24T05:28:07;5.88;;;4.38;;
7398;SDS011;3740;50.700;7.184;2023-07-24T05:30:33;4.32;;;3.97;;
7398;SDS011;3740;50.700;7.184;2023-07-24T05:32:59;4.50;;;4.18;;
7398;SDS011;3740;50.700;7.184;2023-07-24T05:35:25;5.50;;;4.93;;
7398;SDS011;3740;50.700;7.184;2023-07-24T05:37:50;4.97;;;4.57;;
7398;SDS011;3740;50.700;7.184;2023-07-24T05:40:16;4.60;;;4.20;;
7398;SDS011;3740;50.700;7.184;2023-07-24T05:42:41;4.80;;;4.38;;
7398;SDS011;3740;50.700;7.184;2023-07-24T05:45:09;4.78;;;4.38;;
7398;SDS011;3740;50.700;7.184;2023-07-24T05:47:36;6.55;;;4.93;;
7398;SDS011;3740;50.700;7.184;2023-07-24T05:50:02;5.47;;;4.88;;
7398;SDS011;3740;50.700;7.184;2023-07-24T05:52:28;5.28;;;4.70;;
7398;SDS011;3740;50.700;7.184;2023-07-24T05:54:53;6.35;;;4.90;;
7398;SDS011;3740;50.700;7.184;2023-07-24T05:57:19;7.20;;;5.15;;
7398;SDS011;3740;50.700;7.184;2023-07-24T05:59:45;6.53;;;5.03;;
7398;SDS011;3740;50.700;7.184;2023-07-24T06:02:10;6.50;;;5.28;;
7398;SDS011;3740;50.700;7.184;2023-07-24T06:04:36;5.80;;;5.05;;
7398;SDS011;3740;50.700;7.184;2023-07-24T06:07:01;8.77;;;5.35;;
7398;SDS011;3740;50.700;7.184;2023-07-24T06:09:27;5.50;;;5.00;;
7398;SDS011;3740;50.700;7.184;2023-07-24T06:11:53;7.82;;;5.47;;
7398;SDS011;3740;50.700;7.184;2023-07-24T06:14:18;5.03;;;4.53;;
7398;SDS011;3740;50.700;7.184;2023-07-24T06:16:44;6.70;;;5.13;;
7398;SDS011;3740;50.700;7.184;2023-07-24T06:19:09;5.97;;;5.38;;
7398;SDS011;3740;50.700;7.184;2023-07-24T06:21:35;7.60;;;5.50;;
7398;SDS011;3740;50.700;7.184;2023-07-24T06:24:00;6.72;;;5.68;;
7398;SDS011;3740;50.700;7.184;2023-07-24T06:26:26;5.75;;;5.18;;
7398;SDS011;3740;50.700;7.184;2023-07-24T06:28:51;5.50;;;4.97;;
7398;SDS011;3740;50.700;7.184;2023-07-24T06:31:17;6.05;;;5.43;;
7398;SDS011;3740;50.700;7.184;2023-07-24T06:33:43;6.38;;;5.75;;
7398;SDS011;3740;50.700;7.184;2023-07-24T06:36:09;5.90;;;5.30;;
7398;SDS011;3740;50.700;7.184;2023-07-24T06:38:35;6.22;;;5.30;;
7398;SDS011;3740;50.700;7.184;2023-07-24T06:41:01;6.57;;;5.65;;
7398;SDS011;3740;50.700;7.184;2023-07-24T06:43:27;5.78;;;5.18;;
7398;SDS011;3740;50.700;7.184;2023-07-24T06:45:53;6.88;;;5.60;;
7398;SDS011;3740;50.700;7.184;2023-07-24T06:48:19;5.53;;;5.00;;
7398;SDS011;3740;50.700;7.184;2023-07-24T06:50:44;6.15;;;5.30;;
7398;SDS011;3740;50.700;7.184;2023-07-24T06:53:10;7.82;;;5.07;;
7398;SDS011;3740;50.700;7.184;2023-07-24T06:55:35;5.57;;;5.07;;
7398;SDS011;3740;50.700;7.184;2023-07-24T06:58:01;5.38;;;4.95;;
7398;SDS011;3740;50.700;7.184;2023-07-24T07:00:27;5.35;;;4.85;;
7398;SDS011;3740;50.700;7.184;2023-07-24T07:02:52;5.53;;;4.82;;
7398;SDS011;3740;50.700;7.184;2023-07-24T07:05:18;5.38;;;4.97;;
7398;SDS011;3740;50.700;7.184;2023-07-24T07:07:43;6.13;;;5.53;;
7398;SDS011;3740;50.700;7.184;2023-07-24T07:10:09;6.45;;;5.43;;
7398;SDS011;3740;50.700;7.184;2023-07-24T07:12:35;7.13;;;5.35;;
7398;SDS011;3740;50.700;7.184;2023-07-24T07:15:00;5.88;;;5.30;;
7398;SDS011;3740;50.700;7.184;2023-07-24T07:17:26;5.65;;;5.05;;
7398;SDS011;3740;50.700;7.184;2023-07-24T07:19:51;5.07;;;4.68;;
7398;SDS011;3740;50.700;7.184;2023-07-24T07:22:17;5.00;;;4.55;;
7398;SDS011;3740;50.700;7.184;2023-07-24T07:24:43;5.40;;;4.93;;
7398;SDS011;3740;50.700;7.184;2023-07-24T07:27:09;8.35;;;5.43;;
7398;SDS011;3740;50.700;7.184;2023-07-24T07:29:34;5.63;;;5.13;;
7398;SDS011;3740;50.700;7.184;2023-07-24T07:32:00;5.10;;;4.60;;
7398;SDS011;3740;50.700;7.184;2023-07-24T07:34:26;4.97;;;4.50;;
7398;SDS011;3740;50.700;7.184;2023-07-24T07:36:51;4.80;;;4.40;;
7398;SDS011;3740;50.700;7.184;2023-07-24T07:39:17;5.05;;;4.55;;
7398;SDS011;3740;50.700;7.184;2023-07-24T07:41:42;5.30;;;4.78;;
7398;SDS011;3740;50.700;7.184;2023-07-24T07:44:08;5.55;;;5.05;;
7398;SDS011;3740;50.700;7.184;2023-07-24T07:46:33;5.15;;;4.60;;
7398;SDS011;3740;50.700;7.184;2023-07-24T07:48:59;4.85;;;4.45;;
7398;SDS011;3740;50.700;7.184;2023-07-24T07:51:24;5.95;;;4.78;;
7398;SDS011;3740;50.700;7.184;2023-07-24T07:53:51;5.10;;;4.60;;
7398;SDS011;3740;50.700;7.184;2023-07-24T07:56:16;7.53;;;4.95;;
7398;SDS011;3740;50.700;7.184;2023-07-24T07:58:42;8.55;;;5.85;;
7398;SDS011;3740;50.700;7.184;2023-07-24T08:01:07;5.25;;;4.75;;
7398;SDS011;3740;50.700;7.184;2023-07-24T08:03:33;12.35;;;6.47;;
7398;SDS011;3740;50.700;7.184;2023-07-24T08:05:59;11.88;;;6.72;;
7398;SDS011;3740;50.700;7.184;2023-07-24T08:08:25;5.50;;;5.00;;
7398;SDS011;3740;50.700;7.184;2023-07-24T08:10:51;13.23;;;6.25;;
7398;SDS011;3740;50.700;7.184;2023-07-24T08:13:17;7.75;;;5.28;;
7398;SDS011;3740;50.700;7.184;2023-07-24T08:15:42;4.78;;;4.28;;
7398;SDS011;3740;50.700;7.184;2023-07-24T08:18:08;4.80;;;4.22;;
7398;SDS011;3740;50.700;7.184;2023-07-24T08:20:37;5.20;;;4.70;;
7398;SDS011;3740;50.700;7.184;2023-07-24T08:23:03;5.20;;;4.70;;
7398;SDS011;3740;50.700;7.184;2023-07-24T08:25:29;4.70;;;4.30;;
7398;SDS011;3740;50.700;7.184;2023-07-24T08:27:55;5.97;;;4.80;;
7398;SDS011;3740;50.700;7.184;2023-07-24T08:30:20;7.00;;;5.13;;
7398;SDS011;3740;50.700;7.184;2023-07-24T08:32:46;5.15;;;4.70;;
7398;SDS011;3740;50.700;7.184;2023-07-24T08:35:12;4.57;;;3.95;;
7398;SDS011;3740;50.700;7.184;2023-07-24T08:37:37;4.93;;;4.43;;
7398;SDS011;3740;50.700;7.184;2023-07-24T08:40:03;4.40;;;4.00;;
7398;SDS011;3740;50.700;7.184;2023-07-24T08:42:29;4.10;;;3.80;;
7398;SDS011;3740;50.700;7.184;2023-07-24T08:44:56;4.38;;;3.92;;
7398;SDS011;3740;50.700;7.184;2023-07-24T08:47:23;4.40;;;3.95;;
7398;SDS011;3740;50.700;7.184;2023-07-24T08:49:49;4.80;;;3.88;;
7398;SDS011;3740;50.700;7.184;2023-07-24T08:52:16;5.63;;;4.05;;
7398;SDS011;3740;50.700;7.184;2023-07-24T08:54:42;4.32;;;3.92;;
7398;SDS011;3740;50.700;7.184;2023-07-24T08:57:09;4.40;;;4.00;;
7398;SDS011;3740;50.700;7.184;2023-07-24T08:59:36;4.10;;;3.80;;
7398;SDS011;3740;50.700;7.184;2023-07-24T09:02:01;4.40;;;3.67;;
7398;SDS011;3740;50.700;7.184;2023-07-24T09:04:27;3.55;;;3.25;;
7398;SDS011;3740;50.700;7.184;2023-07-24T09:06:53;3.60;;;3.30;;
7398;SDS011;3740;50.700;7.184;2023-07-24T09:09:23;4.00;;;3.53;;
7398;SDS011;3740;50.700;7.184;2023-07-24T09:11:49;3.80;;;3.50;;
7398;SDS011;3740;50.700;7.184;2023-07-24T09:14:22;5.07;;;3.58;;
7398;SDS011;3740;50.700;7.184;2023-07-24T09:16:49;3.83;;;3.40;;
7398;SDS011;3740;50.700;7.184;2023-07-24T09:19:18;3.58;;;3.30;;
7398;SDS011;3740;50.700;7.184;2023-07-24T09:21:44;3.80;;;3.50;;
7398;SDS011;3740;50.700;7.184;2023-07-24T09:24:14;3.63;;;3.33;;
7398;SDS011;3740;50.700;7.184;2023-07-24T09:26:47;3.67;;;3.30;;
7398;SDS011;3740;50.700;7.184;2023-07-24T09:29:13;3.95;;;3.63;;
7398;SDS011;3740;50.700;7.184;2023-07-24T09:31:38;4.88;;;3.88;;
7398;SDS011;3740;50.700;7.184;2023-07-24T09:34:13;3.97;;;3.58;;
7398;SDS011;3740;50.700;7.184;2023-07-24T09:36:42;4.47;;;3.72;;
7398;SDS011;3740;50.700;7.184;2023-07-24T09:39:08;4.13;;;3.33;;
7398;SDS011;3740;50.700;7.184;2023-07-24T09:41:36;3.97;;;3.28;;
7398;SDS011;3740;50.700;7.184;2023-07-24T09:44:06;3.70;;;3.40;;
7398;SDS011;3740;50.700;7.184;2023-07-24T09:46:32;5.45;;;3.30;;
7398;SDS011;3740;50.700;7.184;2023-07-24T09:48:58;3.20;;;2.90;;
7398;SDS011;3740;50.700;7.184;2023-07-24T09:51:23;3.30;;;3.00;;
7398;SDS011;3740;50.700;7.184;2023-07-24T09:53:54;3.45;;;3.20;;
7398;SDS011;3740;50.700;7.184;2023-07-24T09:56:23;3.50;;;3.20;;
7398;SDS011;3740;50.700;7.184;2023-07-24T09:58:50;3.25;;;2.90;;
7398;SDS011;3740;50.700;7.184;2023-07-24T10:01:20;3.97;;;3.35;;
7398;SDS011;3740;50.700;7.184;2023-07-24T10:03:46;3.30;;;3.10;;
7398;SDS011;3740;50.700;7.184;2023-07-24T10:06:12;3.17;;;2.92;;
7398;SDS011;3740;50.700;7.184;2023-07-24T10:08:42;3.40;;;3.10;;
7398;SDS011;3740;50.700;7.184;2023-07-24T10:11:09;3.60;;;3.30;;
7398;SDS011;3740;50.700;7.184;2023-07-24T10:13:37;4.22;;;3.47;;
7398;SDS011;3740;50.700;7.184;2023-07-24T10:16:03;4.03;;;3.50;;
7398;SDS011;3740;50.700;7.184;2023-07-24T10:18:31;3.67;;;3.30;;
7398;SDS011;3740;50.700;7.184;2023-07-24T10:21:03;3.78;;;3.10;;
7398;SDS011;3740;50.700;7.184;2023-07-24T10:23:29;3.10;;;2.80;;
7398;SDS011;3740;50.700;7.184;2023-07-24T10:25:55;3.70;;;3.40;;
7398;SDS011;3740;50.700;7.184;2023-07-24T10:28:33;4.22;;;3.78;;
7398;SDS011;3740;50.700;7.184;2023-07-24T10:31:03;6.97;;;5.20;;
7398;SDS011;3740;50.700;7.184;2023-07-24T10:33:51;3.85;;;3.50;;
7398;SDS011;3740;50.700;7.184;2023-07-24T10:36:18;4.00;;;3.70;;
7398;SDS011;3740;50.700;7.184;2023-07-24T10:38:52;3.67;;;3.38;;
7398;SDS011;3740;50.700;7.184;2023-07-24T10:41:19;3.55;;;3.25;;
7398;SDS011;3740;50.700;7.184;2023-07-24T10:43:45;4.97;;;3.78;;
7398;SDS011;3740;50.700;7.184;2023-07-24T10:46:11;3.78;;;3.47;;
7398;SDS011;3740;50.700;7.184;2023-07-24T10:48:44;4.93;;;3.60;;
7398;SDS011;3740;50.700;7.184;2023-07-24T10:51:11;4.30;;;3.67;;
7398;SDS011;3740;50.700;7.184;2023-07-24T10:53:41;4.05;;;3.65;;
7398;SDS011;3740;50.700;7.184;2023-07-24T10:56:08;4.63;;;3.60;;
7398;SDS011;3740;50.700;7.184;2023-07-24T10:58:34;3.83;;;3.53;;
7398;SDS011;3740;50.700;7.184;2023-07-24T11:01:02;4.28;;;3.55;;
7398;SDS011;3740;50.700;7.184;2023-07-24T11:03:29;4.03;;;3.63;;
7398;SDS011;3740;50.700;7.184;2023-07-24T11:05:57;3.80;;;3.50;;
7398;SDS011;3740;50.700;7.184;2023-07-24T11:08:23;3.70;;;3.40;;
7398;SDS011;3740;50.700;7.184;2023-07-24T11:10:55;3.95;;;3.65;;
7398;SDS011;3740;50.700;7.184;2023-07-24T11:13:26;3.30;;;3.10;;
7398;SDS011;3740;50.700;7.184;2023-07-24T11:15:53;3.70;;;3.40;;
7398;SDS011;3740;50.700;7.184;2023-07-24T11:18:20;4.20;;;3.53;;
7398;SDS011;3740;50.700;7.184;2023-07-24T11:23:17;3.40;;;3.10;;
7398;SDS011;3740;50.700;7.184;2023-07-24T11:25:43;4.00;;;3.50;;
7398;SDS011;3740;50.700;7.184;2023-07-24T11:28:09;3.97;;;3.53;;
7398;SDS011;3740;50.700;7.184;2023-07-24T11:30:36;3.78;;;3.47;;
7398;SDS011;3740;50.700;7.184;2023-07-24T11:33:05;3.70;;;3.30;;
7398;SDS011;3740;50.700;7.184;2023-07-24T11:35:32;3.65;;;3.38;;
7398;SDS011;3740;50.700;7.184;2023-07-24T11:37:58;3.92;;;3.63;;
7398;SDS011;3740;50.700;7.184;2023-07-24T11:40:31;3.60;;;3.30;;
7398;SDS011;3740;50.700;7.184;2023-07-24T11:42:57;3.72;;;3.42;;
7398;SDS011;3740;50.700;7.184;2023-07-24T11:45:22;3.70;;;3.40;;
7398;SDS011;3740;50.700;7.184;2023-07-24T11:47:49;3.58;;;3.25;;
7398;SDS011;3740;50.700;7.184;2023-07-24T11:50:16;3.83;;;3.53;;
7398;SDS011;3740;50.700;7.184;2023-07-24T11:52:46;6.53;;;3.72;;
7398;SDS011;3740;50.700;7.184;2023-07-24T11:55:17;4.15;;;3.72;;
7398;SDS011;3740;50.700;7.184;2023-07-24T11:57:59;3.72;;;3.42;;
7398;SDS011;3740;50.700;7.184;2023-07-24T12:00:25;4.15;;;3.78;;
7398;SDS011;3740;50.700;7.184;2023-07-24T12:02:52;5.68;;;3.70;;
7398;SDS011;3740;50.700;7.184;2023-07-24T12:05:18;3.40;;;3.10;;
7398;SDS011;3740;50.700;7.184;2023-07-24T12:07:44;3.50;;;3.20;;
7398;SDS011;3740;50.700;7.184;2023-07-24T12:10:11;3.97;;;3.58;;
7398;SDS011;3740;50.700;7.184;2023-07-24T12:12:46;3.78;;;3.25;;
7398;SDS011;3740;50.700;7.184;2023-07-24T12:15:12;4.25;;;3.60;;
7398;SDS011;3740;50.700;7.184;2023-07-24T12:17:39;3.85;;;3.05;;
7398;SDS011;3740;50.700;7.184;2023-07-24T12:20:05;6.82;;;3.63;;
7398;SDS011;3740;50.700;7.184;2023-07-24T12:22:33;4.80;;;3.20;;
7398;SDS011;3740;50.700;7.184;2023-07-24T12:24:59;3.63;;;3.30;;
7398;SDS011;3740;50.700;7.184;2023-07-24T12:27:25;4.57;;;3.75;;
7398;SDS011;3740;50.700;7.184;2023-07-24T12:29:51;3.80;;;3.50;;
7398;SDS011;3740;50.700;7.184;2023-07-24T12:32:17;3.80;;;3.40;;
7398;SDS011;3740;50.700;7.184;2023-07-24T12:34:43;3.75;;;3.40;;
7398;SDS011;3740;50.700;7.184;2023-07-24T12:37:11;4.13;;;3.63;;
7398;SDS011;3740;50.700;7.184;2023-07-24T12:39:37;4.28;;;3.55;;
7398;SDS011;3740;50.700;7.184;2023-07-24T12:42:02;6.63;;;3.65;;
7398;SDS011;3740;50.700;7.184;2023-07-24T12:44:28;3.95;;;3.47;;
7398;SDS011;3740;50.700;7.184;2023-07-24T12:46:53;4.85;;;3.20;;
7398;SDS011;3740;50.700;7.184;2023-07-24T12:49:19;3.58;;;2.35;;
7398;SDS011;3740;50.700;7.184;2023-07-24T12:51:44;2.40;;;2.20;;
7398;SDS011;3740;50.700;7.184;2023-07-24T12:54:10;2.42;;;2.17;;
7398;SDS011;3740;50.700;7.184;2023-07-24T12:56:35;2.28;;;1.98;;
7398;SDS011;3740;50.700;7.184;2023-07-24T12:59:01;3.58;;;2.05;;
7398;SDS011;3740;50.700;7.184;2023-07-24T13:01:27;2.75;;;1.98;;
7398;SDS011;3740;50.700;7.184;2023-07-24T13:03:53;2.65;;;2.45;;
7398;SDS011;3740;50.700;7.184;2023-07-24T13:06:19;4.68;;;2.60;;
7398;SDS011;3740;50.700;7.184;2023-07-24T13:08:45;3.38;;;2.53;;
7398;SDS011;3740;50.700;7.184;2023-07-24T13:11:10;3.78;;;2.30;;
7398;SDS011;3740;50.700;7.184;2023-07-24T13:13:36;3.03;;;2.40;;
7398;SDS011;3740;50.700;7.184;2023-07-24T13:16:02;2.90;;;2.63;;
7398;SDS011;3740;50.700;7.184;2023-07-24T13:18:28;3.65;;;2.35;;
7398;SDS011;3740;50.700;7.184;2023-07-24T13:20:54;2.00;;;1.90;;
7398;SDS011;3740;50.700;7.184;2023-07-24T13:23:23;2.25;;;2.15;;
7398;SDS011;3740;50.700;7.184;2023-07-24T13:25:48;1.77;;;1.67;;
7398;SDS011;3740;50.700;7.184;2023-07-24T13:28:15;2.63;;;2.20;;
7398;SDS011;3740;50.700;7.184;2023-07-24T13:30:41;3.13;;;1.98;;
7398;SDS011;3740;50.700;7.184;2023-07-24T13:33:07;2.72;;;2.13;;
7398;SDS011;3740;50.700;7.184;2023-07-24T13:35:32;2.13;;;2.00;;
7398;SDS011;3740;50.700;7.184;2023-07-24T13:37:58;2.22;;;2.03;;
7398;SDS011;3740;50.700;7.184;2023-07-24T13:40:23;2.40;;;2.20;;
7398;SDS011;3740;50.700;7.184;2023-07-24T13:42:49;3.28;;;2.88;;
7398;SDS011;3740;50.700;7.184;2023-07-24T13:45:14;3.35;;;2.58;;
7398;SDS011;3740;50.700;7.184;2023-07-24T13:47:40;3.15;;;2.10;;
7398;SDS011;3740;50.700;7.184;2023-07-24T13:50:05;3.42;;;2.20;;
7398;SDS011;3740;50.700;7.184;2023-07-24T13:52:32;2.72;;;2.00;;
7398;SDS011;3740;50.700;7.184;2023-07-24T13:54:58;2.20;;;2.10;;
7398;SDS011;3740;50.700;7.184;2023-07-24T13:57:23;2.40;;;2.05;;
7398;SDS011;3740;50.700;7.184;2023-07-24T13:59:49;3.03;;;2.05;;
7398;SDS011;3740;50.700;7.184;2023-07-24T14:02:14;1.90;;;1.65;;
7398;SDS011;3740;50.700;7.184;2023-07-24T14:04:40;2.00;;;1.83;;
7398;SDS011;3740;50.700;7.184;2023-07-24T14:07:06;2.10;;;1.75;;
7398;SDS011;3740;50.700;7.184;2023-07-24T14:09:31;2.10;;;1.90;;
7398;SDS011;3740;50.700;7.184;2023-07-24T14:11:59;1.83;;;1.73;;
7398;SDS011;3740;50.700;7.184;2023-07-24T14:14:25;2.22;;;1.70;;
7398;SDS011;3740;50.700;7.184;2023-07-24T14:16:51;2.45;;;1.70;;
7398;SDS011;3740;50.700;7.184;2023-07-24T14:19:17;2.28;;;1.77;;
7398;SDS011;3740;50.700;7.184;2023-07-24T14:21:43;2.97;;;2.35;;
7398;SDS011;3740;50.700;7.184;2023-07-24T14:24:09;4.60;;;2.25;;
7398;SDS011;3740;50.700;7.184;2023-07-24T14:26:35;4.07;;;1.92;;
7398;SDS011;3740;50.700;7.184;2023-07-24T14:29:02;1.60;;;1.50;;
7398;SDS011;3740;50.700;7.184;2023-07-24T14:31:28;2.05;;;1.67;;
7398;SDS011;3740;50.700;7.184;2023-07-24T14:33:54;2.47;;;1.38;;
7398;SDS011;3740;50.700;7.184;2023-07-24T14:36:20;2.13;;;1.42;;
7398;SDS011;3740;50.700;7.184;2023-07-24T14:38:46;1.85;;;1.60;;
7398;SDS011;3740;50.700;7.184;2023-07-24T14:41:12;2.00;;;1.55;;
7398;SDS011;3740;50.700;7.184;2023-07-24T14:43:39;2.60;;;2.17;;
7398;SDS011;3740;50.700;7.184;2023-07-24T14:46:05;1.98;;;1.85;;
7398;SDS011;3740;50.700;7.184;2023-07-24T14:48:31;2.30;;;2.10;;
7398;SDS011;3740;50.700;7.184;2023-07-24T14:50:57;2.22;;;2.03;;
7398;SDS011;3740;50.700;7.184;2023-07-24T14:53:22;3.88;;;2.42;;
7398;SDS011;3740;50.700;7.184;2023-07-24T14:55:48;3.08;;;2.03;;
7398;SDS011;3740;50.700;7.184;2023-07-24T14:58:13;2.10;;;1.88;;
7398;SDS011;3740;50.700;7.184;2023-07-24T15:00:39;2.08;;;1.88;;
7398;SDS011;3740;50.700;7.184;2023-07-24T15:03:05;2.40;;;2.20;;
7398;SDS011;3740;50.700;7.184;2023-07-24T15:05:31;2.92;;;2.22;;
7398;SDS011;3740;50.700;7.184;2023-07-24T15:07:56;2.25;;;2.00;;
7398;SDS011;3740;50.700;7.184;2023-07-24T15:10:22;2.15;;;2.05;;
7398;SDS011;3740;50.700;7.184;2023-07-24T15:12:48;1.88;;;1.77;;
7398;SDS011;3740;50.700;7.184;2023-07-24T15:15:14;1.77;;;1.50;;
7398;SDS011;3740;50.700;7.184;2023-07-24T15:17:39;1.75;;;1.65;;